sensor_id;sensor_type;location;lat;lon;timestamp;P1;durP1;ratioP1;P2;durP2;ratioP2
32365;SDS011;18837;46.832;16.838;2023-06-04T00:00:48;3.93;;;3.10;;
32365;SDS011;18837;46.832;16.838;2023-06-04T00:03:14;3.87;;;3.20;;
32365;SDS011;18837;46.832;16.838;2023-06-04T00:05:41;4.33;;;3.10;;
32365;SDS011;18837;46.832;16.838;2023-06-04T00:08:07;3.40;;;3.10;;
32365;SDS011;18837;46.832;16.838;2023-06-04T00:10:33;3.60;;;3.30;;
32365;SDS011;18837;46.832;16.838;2023-06-04T00:12:59;3.37;;;3.07;;
32365;SDS011;18837;46.832;16.838;2023-06-04T00:15:25;3.33;;;3.03;;
32365;SDS011;18837;46.832;16.838;2023-06-04T00:17:51;4.53;;;3.43;;
32365;SDS011;18837;46.832;16.838;2023-06-04T00:20:17;4.20;;;3.53;;
32365;SDS011;18837;46.832;16.838;2023-06-04T00:22:44;4.33;;;3.70;;
32365;SDS011;18837;46.832;16.838;2023-06-04T00:25:10;4.00;;;3.60;;
32365;SDS011;18837;46.832;16.838;2023-06-04T00:27:36;5.00;;;3.50;;
32365;SDS011;18837;46.832;16.838;2023-06-04T00:30:02;3.77;;;3.37;;
32365;SDS011;18837;46.832;16.838;2023-06-04T00:32:29;3.50;;;3.20;;
32365;SDS011;18837;46.832;16.838;2023-06-04T00:34:55;3.77;;;3.37;;
32365;SDS011;18837;46.832;16.838;2023-06-04T00:37:23;3.73;;;3.40;;
32365;SDS011;18837;46.832;16.838;2023-06-04T00:39:49;3.97;;;3.63;;
32365;SDS011;18837;46.832;16.838;2023-06-04T00:42:15;3.43;;;3.13;;
32365;SDS011;18837;46.832;16.838;2023-06-04T00:44:41;3.80;;;3.50;;
32365;SDS011;18837;46.832;16.838;2023-06-04T00:47:10;3.40;;;3.10;;
32365;SDS011;18837;46.832;16.838;2023-06-04T00:49:37;5.30;;;3.20;;
32365;SDS011;18837;46.832;16.838;2023-06-04T00:52:03;3.37;;;3.07;;
32365;SDS011;18837;46.832;16.838;2023-06-04T00:54:30;4.93;;;3.20;;
32365;SDS011;18837;46.832;16.838;2023-06-04T00:56:57;4.40;;;3.20;;
32365;SDS011;18837;46.832;16.838;2023-06-04T00:59:23;4.97;;;4.00;;
32365;SDS011;18837;46.832;16.838;2023-06-04T01:01:51;3.83;;;3.20;;
32365;SDS011;18837;46.832;16.838;2023-06-04T01:04:36;3.80;;;3.47;;
32365;SDS011;18837;46.832;16.838;2023-06-04T01:07:13;4.17;;;3.50;;
32365;SDS011;18837;46.832;16.838;2023-06-04T01:09:40;4.67;;;3.20;;
32365;SDS011;18837;46.832;16.838;2023-06-04T01:12:06;4.93;;;3.67;;
32365;SDS011;18837;46.832;16.838;2023-06-04T01:14:33;6.03;;;3.40;;
32365;SDS011;18837;46.832;16.838;2023-06-04T01:19:48;6.17;;;3.50;;
32365;SDS011;18837;46.832;16.838;2023-06-04T01:24:59;5.23;;;3.63;;
32365;SDS011;18837;46.832;16.838;2023-06-04T01:27:29;3.70;;;3.40;;
32365;SDS011;18837;46.832;16.838;2023-06-04T01:29:56;4.37;;;3.23;;
32365;SDS011;18837;46.832;16.838;2023-06-04T01:32:23;4.97;;;3.70;;
32365;SDS011;18837;46.832;16.838;2023-06-04T01:34:50;4.13;;;3.60;;
32365;SDS011;18837;46.832;16.838;2023-06-04T01:37:16;6.17;;;3.57;;
32365;SDS011;18837;46.832;16.838;2023-06-04T01:39:42;3.93;;;3.63;;
32365;SDS011;18837;46.832;16.838;2023-06-04T01:42:08;6.30;;;3.50;;
32365;SDS011;18837;46.832;16.838;2023-06-04T01:44:34;3.67;;;3.27;;
32365;SDS011;18837;46.832;16.838;2023-06-04T01:47:00;4.33;;;3.70;;
32365;SDS011;18837;46.832;16.838;2023-06-04T01:49:25;3.83;;;3.30;;
32365;SDS011;18837;46.832;16.838;2023-06-04T01:51:52;5.90;;;3.50;;
32365;SDS011;18837;46.832;16.838;2023-06-04T01:54:18;4.33;;;3.93;;
32365;SDS011;18837;46.832;16.838;2023-06-04T01:56:43;4.00;;;3.40;;
32365;SDS011;18837;46.832;16.838;2023-06-04T01:59:10;4.83;;;3.77;;
32365;SDS011;18837;46.832;16.838;2023-06-04T02:01:37;4.17;;;3.60;;
32365;SDS011;18837;46.832;16.838;2023-06-04T02:04:03;3.40;;;3.10;;
32365;SDS011;18837;46.832;16.838;2023-06-04T02:06:29;4.20;;;3.40;;
32365;SDS011;18837;46.832;16.838;2023-06-04T02:08:56;3.67;;;3.30;;
32365;SDS011;18837;46.832;16.838;2023-06-04T02:11:22;4.63;;;3.87;;
32365;SDS011;18837;46.832;16.838;2023-06-04T02:13:48;4.07;;;3.67;;
32365;SDS011;18837;46.832;16.838;2023-06-04T02:16:13;4.40;;;3.50;;
32365;SDS011;18837;46.832;16.838;2023-06-04T02:18:39;3.57;;;3.13;;
32365;SDS011;18837;46.832;16.838;2023-06-04T02:21:06;4.17;;;3.80;;
32365;SDS011;18837;46.832;16.838;2023-06-04T02:23:33;5.40;;;3.90;;
32365;SDS011;18837;46.832;16.838;2023-06-04T02:25:59;5.20;;;3.43;;
32365;SDS011;18837;46.832;16.838;2023-06-04T02:28:24;4.23;;;3.50;;
32365;SDS011;18837;46.832;16.838;2023-06-04T02:30:51;4.57;;;3.57;;
32365;SDS011;18837;46.832;16.838;2023-06-04T02:33:16;3.57;;;3.20;;
32365;SDS011;18837;46.832;16.838;2023-06-04T02:35:42;4.33;;;3.60;;
32365;SDS011;18837;46.832;16.838;2023-06-04T02:38:08;3.90;;;3.50;;
32365;SDS011;18837;46.832;16.838;2023-06-04T02:40:34;4.07;;;3.63;;
32365;SDS011;18837;46.832;16.838;2023-06-04T02:43:00;4.50;;;3.80;;
32365;SDS011;18837;46.832;16.838;2023-06-04T02:45:25;3.87;;;3.50;;
32365;SDS011;18837;46.832;16.838;2023-06-04T02:47:51;4.40;;;3.50;;
32365;SDS011;18837;46.832;16.838;2023-06-04T02:50:17;4.07;;;3.67;;
32365;SDS011;18837;46.832;16.838;2023-06-04T02:52:42;3.60;;;3.30;;
32365;SDS011;18837;46.832;16.838;2023-06-04T02:55:08;3.43;;;3.13;;
32365;SDS011;18837;46.832;16.838;2023-06-04T02:57:37;4.10;;;3.40;;
32365;SDS011;18837;46.832;16.838;2023-06-04T03:00:04;3.90;;;3.50;;
32365;SDS011;18837;46.832;16.838;2023-06-04T03:02:37;4.83;;;3.40;;
32365;SDS011;18837;46.832;16.838;2023-06-04T03:05:05;4.03;;;3.30;;
32365;SDS011;18837;46.832;16.838;2023-06-04T03:07:34;4.70;;;3.67;;
32365;SDS011;18837;46.832;16.838;2023-06-04T03:09:59;3.83;;;3.20;;
32365;SDS011;18837;46.832;16.838;2023-06-04T03:12:25;4.03;;;3.63;;
32365;SDS011;18837;46.832;16.838;2023-06-04T03:14:50;4.20;;;3.80;;
32365;SDS011;18837;46.832;16.838;2023-06-04T03:17:17;4.20;;;3.33;;
32365;SDS011;18837;46.832;16.838;2023-06-04T03:19:43;3.70;;;3.40;;
32365;SDS011;18837;46.832;16.838;2023-06-04T03:22:09;4.50;;;3.43;;
32365;SDS011;18837;46.832;16.838;2023-06-04T03:24:36;5.13;;;3.50;;
32365;SDS011;18837;46.832;16.838;2023-06-04T03:27:04;4.30;;;3.53;;
32365;SDS011;18837;46.832;16.838;2023-06-04T03:29:31;3.77;;;3.37;;
32365;SDS011;18837;46.832;16.838;2023-06-04T03:31:57;3.90;;;3.60;;
32365;SDS011;18837;46.832;16.838;2023-06-04T03:34:23;4.27;;;3.50;;
32365;SDS011;18837;46.832;16.838;2023-06-04T03:36:50;3.80;;;3.40;;
32365;SDS011;18837;46.832;16.838;2023-06-04T03:39:19;4.27;;;3.17;;
32365;SDS011;18837;46.832;16.838;2023-06-04T03:41:46;3.53;;;3.23;;
32365;SDS011;18837;46.832;16.838;2023-06-04T03:44:13;3.60;;;3.30;;
32365;SDS011;18837;46.832;16.838;2023-06-04T03:46:40;3.93;;;3.57;;
32365;SDS011;18837;46.832;16.838;2023-06-04T03:49:06;3.80;;;3.40;;
32365;SDS011;18837;46.832;16.838;2023-06-04T03:51:32;4.00;;;3.53;;
32365;SDS011;18837;46.832;16.838;2023-06-04T03:53:58;4.17;;;3.53;;
32365;SDS011;18837;46.832;16.838;2023-06-04T03:56:24;5.03;;;3.60;;
32365;SDS011;18837;46.832;16.838;2023-06-04T03:58:52;3.73;;;3.37;;
32365;SDS011;18837;46.832;16.838;2023-06-04T04:01:17;3.80;;;3.40;;
32365;SDS011;18837;46.832;16.838;2023-06-04T04:03:43;5.10;;;3.60;;
32365;SDS011;18837;46.832;16.838;2023-06-04T04:06:13;4.20;;;3.80;;
32365;SDS011;18837;46.832;16.838;2023-06-04T04:08:42;3.60;;;3.30;;
32365;SDS011;18837;46.832;16.838;2023-06-04T04:11:09;5.03;;;3.40;;
32365;SDS011;18837;46.832;16.838;2023-06-04T04:13:39;4.03;;;3.43;;
32365;SDS011;18837;46.832;16.838;2023-06-04T04:16:05;3.20;;;2.83;;
32365;SDS011;18837;46.832;16.838;2023-06-04T04:18:34;3.73;;;3.43;;
32365;SDS011;18837;46.832;16.838;2023-06-04T04:21:01;3.53;;;3.23;;
32365;SDS011;18837;46.832;16.838;2023-06-04T04:23:28;4.43;;;3.13;;
32365;SDS011;18837;46.832;16.838;2023-06-04T04:25:54;4.50;;;3.27;;
32365;SDS011;18837;46.832;16.838;2023-06-04T04:28:23;3.80;;;3.17;;
32365;SDS011;18837;46.832;16.838;2023-06-04T04:30:54;4.50;;;3.60;;
32365;SDS011;18837;46.832;16.838;2023-06-04T04:33:21;4.30;;;3.20;;
32365;SDS011;18837;46.832;16.838;2023-06-04T04:35:49;3.97;;;3.10;;
32365;SDS011;18837;46.832;16.838;2023-06-04T04:38:15;3.83;;;3.23;;
32365;SDS011;18837;46.832;16.838;2023-06-04T04:40:43;3.70;;;3.30;;
32365;SDS011;18837;46.832;16.838;2023-06-04T04:43:08;4.30;;;3.50;;
32365;SDS011;18837;46.832;16.838;2023-06-04T04:45:34;4.03;;;3.20;;
32365;SDS011;18837;46.832;16.838;2023-06-04T04:48:00;3.30;;;2.90;;
32365;SDS011;18837;46.832;16.838;2023-06-04T04:50:25;3.73;;;3.17;;
32365;SDS011;18837;46.832;16.838;2023-06-04T04:52:51;3.10;;;2.70;;
32365;SDS011;18837;46.832;16.838;2023-06-04T04:55:17;3.53;;;3.20;;
32365;SDS011;18837;46.832;16.838;2023-06-04T04:57:42;3.20;;;2.90;;
32365;SDS011;18837;46.832;16.838;2023-06-04T05:00:08;3.60;;;3.00;;
32365;SDS011;18837;46.832;16.838;2023-06-04T05:02:35;3.80;;;3.40;;
32365;SDS011;18837;46.832;16.838;2023-06-04T05:05:01;3.93;;;3.17;;
32365;SDS011;18837;46.832;16.838;2023-06-04T05:07:28;3.83;;;3.10;;
32365;SDS011;18837;46.832;16.838;2023-06-04T05:09:54;3.60;;;3.30;;
32365;SDS011;18837;46.832;16.838;2023-06-04T05:12:19;4.37;;;3.47;;
32365;SDS011;18837;46.832;16.838;2023-06-04T05:14:45;3.43;;;2.90;;
32365;SDS011;18837;46.832;16.838;2023-06-04T05:17:11;4.17;;;3.10;;
32365;SDS011;18837;46.832;16.838;2023-06-04T05:19:38;3.57;;;3.00;;
32365;SDS011;18837;46.832;16.838;2023-06-04T05:22:03;3.40;;;3.10;;
32365;SDS011;18837;46.832;16.838;2023-06-04T05:24:30;3.33;;;3.03;;
32365;SDS011;18837;46.832;16.838;2023-06-04T05:26:57;3.50;;;3.20;;
32365;SDS011;18837;46.832;16.838;2023-06-04T05:29:23;3.63;;;2.90;;
32365;SDS011;18837;46.832;16.838;2023-06-04T05:31:49;5.77;;;3.27;;
32365;SDS011;18837;46.832;16.838;2023-06-04T05:34:15;3.30;;;3.00;;
32365;SDS011;18837;46.832;16.838;2023-06-04T05:36:42;3.17;;;2.87;;
32365;SDS011;18837;46.832;16.838;2023-06-04T05:39:08;3.30;;;2.83;;
32365;SDS011;18837;46.832;16.838;2023-06-04T05:41:35;3.10;;;2.77;;
32365;SDS011;18837;46.832;16.838;2023-06-04T05:44:04;4.37;;;3.10;;
32365;SDS011;18837;46.832;16.838;2023-06-04T05:46:30;3.30;;;3.00;;
32365;SDS011;18837;46.832;16.838;2023-06-04T05:48:55;4.33;;;3.00;;
32365;SDS011;18837;46.832;16.838;2023-06-04T05:51:21;3.30;;;3.00;;
32365;SDS011;18837;46.832;16.838;2023-06-04T05:53:47;3.73;;;2.97;;
32365;SDS011;18837;46.832;16.838;2023-06-04T05:56:13;4.10;;;3.17;;
32365;SDS011;18837;46.832;16.838;2023-06-04T05:58:38;4.23;;;2.83;;
32365;SDS011;18837;46.832;16.838;2023-06-04T06:01:04;3.27;;;2.90;;
32365;SDS011;18837;46.832;16.838;2023-06-04T06:03:31;3.50;;;3.03;;
32365;SDS011;18837;46.832;16.838;2023-06-04T06:05:57;3.47;;;3.00;;
32365;SDS011;18837;46.832;16.838;2023-06-04T06:08:25;3.20;;;2.90;;
32365;SDS011;18837;46.832;16.838;2023-06-04T06:10:51;3.10;;;2.80;;
32365;SDS011;18837;46.832;16.838;2023-06-04T06:13:16;3.73;;;2.50;;
32365;SDS011;18837;46.832;16.838;2023-06-04T06:15:42;3.20;;;2.90;;
32365;SDS011;18837;46.832;16.838;2023-06-04T06:18:08;3.67;;;2.60;;
32365;SDS011;18837;46.832;16.838;2023-06-04T06:20:34;2.73;;;2.53;;
32365;SDS011;18837;46.832;16.838;2023-06-04T06:23:06;4.13;;;2.70;;
32365;SDS011;18837;46.832;16.838;2023-06-04T06:25:32;3.77;;;2.60;;
32365;SDS011;18837;46.832;16.838;2023-06-04T06:27:57;3.23;;;2.80;;
32365;SDS011;18837;46.832;16.838;2023-06-04T06:30:24;3.20;;;2.90;;
32365;SDS011;18837;46.832;16.838;2023-06-04T06:32:50;3.30;;;2.50;;
32365;SDS011;18837;46.832;16.838;2023-06-04T06:35:16;2.80;;;2.60;;
32365;SDS011;18837;46.832;16.838;2023-06-04T06:37:42;4.17;;;2.90;;
32365;SDS011;18837;46.832;16.838;2023-06-04T06:40:08;2.93;;;2.70;;
32365;SDS011;18837;46.832;16.838;2023-06-04T06:42:35;2.80;;;2.60;;
32365;SDS011;18837;46.832;16.838;2023-06-04T06:45:01;2.80;;;2.60;;
32365;SDS011;18837;46.832;16.838;2023-06-04T06:47:27;3.10;;;2.80;;
32365;SDS011;18837;46.832;16.838;2023-06-04T06:49:54;2.70;;;2.47;;
32365;SDS011;18837;46.832;16.838;2023-06-04T06:52:20;3.40;;;3.00;;
32365;SDS011;18837;46.832;16.838;2023-06-04T06:54:45;3.07;;;2.57;;
32365;SDS011;18837;46.832;16.838;2023-06-04T06:57:12;2.93;;;2.50;;
32365;SDS011;18837;46.832;16.838;2023-06-04T06:59:38;2.57;;;2.37;;
32365;SDS011;18837;46.832;16.838;2023-06-04T07:02:04;3.03;;;2.73;;
32365;SDS011;18837;46.832;16.838;2023-06-04T07:04:31;2.80;;;2.50;;
32365;SDS011;18837;46.832;16.838;2023-06-04T07:06:57;3.47;;;2.70;;
32365;SDS011;18837;46.832;16.838;2023-06-04T07:09:22;3.17;;;2.50;;
32365;SDS011;18837;46.832;16.838;2023-06-04T07:11:48;3.03;;;2.73;;
32365;SDS011;18837;46.832;16.838;2023-06-04T07:14:14;3.00;;;2.70;;
32365;SDS011;18837;46.832;16.838;2023-06-04T07:16:40;3.57;;;2.60;;
32365;SDS011;18837;46.832;16.838;2023-06-04T07:19:06;3.93;;;2.50;;
32365;SDS011;18837;46.832;16.838;2023-06-04T07:21:32;3.07;;;2.77;;
32365;SDS011;18837;46.832;16.838;2023-06-04T07:23:58;3.80;;;3.27;;
32365;SDS011;18837;46.832;16.838;2023-06-04T07:26:24;3.00;;;2.73;;
32365;SDS011;18837;46.832;16.838;2023-06-04T07:28:51;3.13;;;2.67;;
32365;SDS011;18837;46.832;16.838;2023-06-04T07:31:17;3.73;;;2.63;;
32365;SDS011;18837;46.832;16.838;2023-06-04T07:33:43;3.07;;;2.77;;
32365;SDS011;18837;46.832;16.838;2023-06-04T07:36:10;3.00;;;2.70;;
32365;SDS011;18837;46.832;16.838;2023-06-04T07:38:37;4.23;;;3.20;;
32365;SDS011;18837;46.832;16.838;2023-06-04T07:41:03;2.87;;;2.57;;
32365;SDS011;18837;46.832;16.838;2023-06-04T07:43:29;3.83;;;2.80;;
32365;SDS011;18837;46.832;16.838;2023-06-04T07:45:55;3.47;;;2.87;;
32365;SDS011;18837;46.832;16.838;2023-06-04T07:48:21;3.00;;;2.67;;
32365;SDS011;18837;46.832;16.838;2023-06-04T07:50:55;3.63;;;2.50;;
32365;SDS011;18837;46.832;16.838;2023-06-04T07:53:24;3.17;;;2.87;;
32365;SDS011;18837;46.832;16.838;2023-06-04T07:55:50;3.00;;;2.70;;
32365;SDS011;18837;46.832;16.838;2023-06-04T07:58:17;2.50;;;2.30;;
32365;SDS011;18837;46.832;16.838;2023-06-04T08:00:42;2.73;;;2.50;;
32365;SDS011;18837;46.832;16.838;2023-06-04T08:03:08;3.00;;;2.60;;
32365;SDS011;18837;46.832;16.838;2023-06-04T08:05:35;2.70;;;2.50;;
32365;SDS011;18837;46.832;16.838;2023-06-04T08:08:01;2.57;;;2.37;;
32365;SDS011;18837;46.832;16.838;2023-06-04T08:10:28;2.60;;;2.30;;
32365;SDS011;18837;46.832;16.838;2023-06-04T08:12:55;2.97;;;2.70;;
32365;SDS011;18837;46.832;16.838;2023-06-04T08:15:21;3.33;;;2.70;;
32365;SDS011;18837;46.832;16.838;2023-06-04T08:17:46;2.87;;;2.53;;
32365;SDS011;18837;46.832;16.838;2023-06-04T08:20:12;5.07;;;2.60;;
32365;SDS011;18837;46.832;16.838;2023-06-04T08:22:38;8.90;;;2.97;;
32365;SDS011;18837;46.832;16.838;2023-06-04T08:25:04;3.73;;;2.63;;
32365;SDS011;18837;46.832;16.838;2023-06-04T08:27:32;5.57;;;2.50;;
32365;SDS011;18837;46.832;16.838;2023-06-04T08:29:57;3.60;;;2.37;;
32365;SDS011;18837;46.832;16.838;2023-06-04T08:32:23;3.23;;;2.90;;
32365;SDS011;18837;46.832;16.838;2023-06-04T08:34:49;4.00;;;2.60;;
32365;SDS011;18837;46.832;16.838;2023-06-04T08:37:18;4.07;;;2.40;;
32365;SDS011;18837;46.832;16.838;2023-06-04T08:39:44;3.00;;;2.53;;
32365;SDS011;18837;46.832;16.838;2023-06-04T08:42:14;4.13;;;2.40;;
32365;SDS011;18837;46.832;16.838;2023-06-04T08:44:50;2.50;;;2.30;;
32365;SDS011;18837;46.832;16.838;2023-06-04T08:47:17;2.63;;;2.37;;
32365;SDS011;18837;46.832;16.838;2023-06-04T08:49:45;2.27;;;2.07;;
32365;SDS011;18837;46.832;16.838;2023-06-04T08:52:15;2.83;;;2.50;;
32365;SDS011;18837;46.832;16.838;2023-06-04T08:57:50;4.37;;;2.50;;
32365;SDS011;18837;46.832;16.838;2023-06-04T09:00:16;3.63;;;2.47;;
32365;SDS011;18837;46.832;16.838;2023-06-04T09:02:43;4.60;;;2.87;;
32365;SDS011;18837;46.832;16.838;2023-06-04T09:05:10;2.97;;;2.50;;
32365;SDS011;18837;46.832;16.838;2023-06-04T09:07:51;5.07;;;2.33;;
32365;SDS011;18837;46.832;16.838;2023-06-04T09:10:22;3.90;;;2.30;;
32365;SDS011;18837;46.832;16.838;2023-06-04T09:12:49;2.47;;;2.03;;
32365;SDS011;18837;46.832;16.838;2023-06-04T09:15:16;3.87;;;2.03;;
32365;SDS011;18837;46.832;16.838;2023-06-04T09:17:44;2.50;;;2.20;;
32365;SDS011;18837;46.832;16.838;2023-06-04T09:20:20;3.53;;;2.23;;
32365;SDS011;18837;46.832;16.838;2023-06-04T09:22:46;3.50;;;2.53;;
32365;SDS011;18837;46.832;16.838;2023-06-04T09:25:19;2.10;;;1.97;;
32365;SDS011;18837;46.832;16.838;2023-06-04T09:27:50;3.23;;;2.30;;
32365;SDS011;18837;46.832;16.838;2023-06-04T09:30:16;3.07;;;2.23;;
32365;SDS011;18837;46.832;16.838;2023-06-04T09:32:42;2.70;;;2.20;;
32365;SDS011;18837;46.832;16.838;2023-06-04T09:35:14;4.23;;;2.33;;
32365;SDS011;18837;46.832;16.838;2023-06-04T09:37:41;3.80;;;2.20;;
32365;SDS011;18837;46.832;16.838;2023-06-04T09:40:09;2.80;;;2.50;;
32365;SDS011;18837;46.832;16.838;2023-06-04T09:42:45;2.50;;;2.17;;
32365;SDS011;18837;46.832;16.838;2023-06-04T09:45:25;2.73;;;2.10;;
32365;SDS011;18837;46.832;16.838;2023-06-04T09:47:52;2.97;;;2.30;;
32365;SDS011;18837;46.832;16.838;2023-06-04T09:50:24;3.77;;;2.80;;
32365;SDS011;18837;46.832;16.838;2023-06-04T09:52:56;3.63;;;2.43;;
32365;SDS011;18837;46.832;16.838;2023-06-04T09:55:22;4.10;;;2.40;;
32365;SDS011;18837;46.832;16.838;2023-06-04T09:57:51;2.40;;;2.10;;
32365;SDS011;18837;46.832;16.838;2023-06-04T10:00:19;3.83;;;2.27;;
32365;SDS011;18837;46.832;16.838;2023-06-04T10:02:47;3.23;;;2.60;;
32365;SDS011;18837;46.832;16.838;2023-06-04T10:05:14;3.47;;;2.47;;
32365;SDS011;18837;46.832;16.838;2023-06-04T10:07:44;3.27;;;2.97;;
32365;SDS011;18837;46.832;16.838;2023-06-04T10:10:13;4.07;;;2.50;;
32365;SDS011;18837;46.832;16.838;2023-06-04T10:12:41;2.43;;;2.23;;
32365;SDS011;18837;46.832;16.838;2023-06-04T10:15:11;3.83;;;2.40;;
32365;SDS011;18837;46.832;16.838;2023-06-04T10:17:38;3.03;;;2.30;;
32365;SDS011;18837;46.832;16.838;2023-06-04T10:20:06;2.50;;;1.93;;
32365;SDS011;18837;46.832;16.838;2023-06-04T10:22:35;3.17;;;2.20;;
32365;SDS011;18837;46.832;16.838;2023-06-04T10:25:01;2.90;;;2.60;;
32365;SDS011;18837;46.832;16.838;2023-06-04T10:27:30;2.77;;;2.27;;
32365;SDS011;18837;46.832;16.838;2023-06-04T10:29:57;2.20;;;2.00;;
32365;SDS011;18837;46.832;16.838;2023-06-04T10:32:26;3.27;;;2.43;;
32365;SDS011;18837;46.832;16.838;2023-06-04T10:34:53;2.20;;;2.00;;
32365;SDS011;18837;46.832;16.838;2023-06-04T10:37:23;2.80;;;2.13;;
32365;SDS011;18837;46.832;16.838;2023-06-04T10:39:55;2.50;;;2.30;;
32365;SDS011;18837;46.832;16.838;2023-06-04T10:42:22;2.40;;;2.20;;
32365;SDS011;18837;46.832;16.838;2023-06-04T10:44:49;2.70;;;2.17;;
32365;SDS011;18837;46.832;16.838;2023-06-04T10:47:24;3.17;;;1.93;;
32365;SDS011;18837;46.832;16.838;2023-06-04T10:49:52;2.23;;;2.00;;
32365;SDS011;18837;46.832;16.838;2023-06-04T10:52:18;3.13;;;2.07;;
32365;SDS011;18837;46.832;16.838;2023-06-04T10:54:45;2.43;;;2.23;;
32365;SDS011;18837;46.832;16.838;2023-06-04T10:57:16;3.37;;;2.30;;
32365;SDS011;18837;46.832;16.838;2023-06-04T10:59:55;2.40;;;2.10;;
32365;SDS011;18837;46.832;16.838;2023-06-04T11:02:22;2.37;;;2.10;;
32365;SDS011;18837;46.832;16.838;2023-06-04T11:05:07;2.47;;;2.27;;
32365;SDS011;18837;46.832;16.838;2023-06-04T11:07:41;2.60;;;2.40;;
32365;SDS011;18837;46.832;16.838;2023-06-04T11:10:11;2.53;;;2.33;;
32365;SDS011;18837;46.832;16.838;2023-06-04T11:12:47;4.47;;;2.97;;
32365;SDS011;18837;46.832;16.838;2023-06-04T11:15:16;3.47;;;2.70;;
32365;SDS011;18837;46.832;16.838;2023-06-04T11:17:49;3.07;;;2.53;;
32365;SDS011;18837;46.832;16.838;2023-06-04T11:20:18;2.67;;;2.47;;
32365;SDS011;18837;46.832;16.838;2023-06-04T11:22:52;2.53;;;2.33;;
32365;SDS011;18837;46.832;16.838;2023-06-04T11:25:19;3.70;;;2.60;;
32365;SDS011;18837;46.832;16.838;2023-06-04T11:27:47;3.23;;;2.60;;
32365;SDS011;18837;46.832;16.838;2023-06-04T11:30:14;2.50;;;2.30;;
32365;SDS011;18837;46.832;16.838;2023-06-04T11:32:41;3.33;;;2.33;;
32365;SDS011;18837;46.832;16.838;2023-06-04T11:35:06;2.63;;;2.40;;
32365;SDS011;18837;46.832;16.838;2023-06-04T11:37:33;2.80;;;2.10;;
32365;SDS011;18837;46.832;16.838;2023-06-04T11:40:00;2.33;;;2.13;;
32365;SDS011;18837;46.832;16.838;2023-06-04T11:42:27;2.50;;;2.30;;
32365;SDS011;18837;46.832;16.838;2023-06-04T11:44:57;2.80;;;2.50;;
32365;SDS011;18837;46.832;16.838;2023-06-04T11:47:24;2.53;;;2.33;;
32365;SDS011;18837;46.832;16.838;2023-06-04T11:49:56;3.13;;;2.50;;
32365;SDS011;18837;46.832;16.838;2023-06-04T11:52:22;3.13;;;2.63;;
32365;SDS011;18837;46.832;16.838;2023-06-04T11:54:49;2.60;;;2.37;;
32365;SDS011;18837;46.832;16.838;2023-06-04T11:57:15;2.57;;;2.37;;
32365;SDS011;18837;46.832;16.838;2023-06-04T11:59:41;2.60;;;2.40;;
32365;SDS011;18837;46.832;16.838;2023-06-04T12:02:07;5.27;;;2.43;;
32365;SDS011;18837;46.832;16.838;2023-06-04T12:04:33;2.87;;;2.43;;
32365;SDS011;18837;46.832;16.838;2023-06-04T12:07:00;4.23;;;2.47;;
32365;SDS011;18837;46.832;16.838;2023-06-04T12:09:31;2.87;;;2.47;;
32365;SDS011;18837;46.832;16.838;2023-06-04T12:12:03;4.30;;;2.60;;
32365;SDS011;18837;46.832;16.838;2023-06-04T12:14:30;3.97;;;2.33;;
32365;SDS011;18837;46.832;16.838;2023-06-04T12:16:57;2.90;;;2.30;;
32365;SDS011;18837;46.832;16.838;2023-06-04T12:19:24;3.37;;;2.73;;
32365;SDS011;18837;46.832;16.838;2023-06-04T12:24:29;3.63;;;2.70;;
32365;SDS011;18837;46.832;16.838;2023-06-04T12:27:04;3.97;;;2.70;;
32365;SDS011;18837;46.832;16.838;2023-06-04T12:29:31;4.17;;;2.93;;
32365;SDS011;18837;46.832;16.838;2023-06-04T12:32:07;3.50;;;2.47;;
32365;SDS011;18837;46.832;16.838;2023-06-04T12:34:34;3.43;;;2.90;;
32365;SDS011;18837;46.832;16.838;2023-06-04T12:37:00;4.10;;;2.80;;
32365;SDS011;18837;46.832;16.838;2023-06-04T12:39:28;3.13;;;2.70;;
32365;SDS011;18837;46.832;16.838;2023-06-04T12:41:54;3.03;;;2.73;;
32365;SDS011;18837;46.832;16.838;2023-06-04T12:44:20;3.10;;;2.80;;
32365;SDS011;18837;46.832;16.838;2023-06-04T12:46:46;3.00;;;2.60;;
32365;SDS011;18837;46.832;16.838;2023-06-04T12:49:12;4.80;;;2.97;;
32365;SDS011;18837;46.832;16.838;2023-06-04T12:51:38;3.03;;;2.80;;
32365;SDS011;18837;46.832;16.838;2023-06-04T12:54:04;3.13;;;2.67;;
32365;SDS011;18837;46.832;16.838;2023-06-04T12:56:30;3.83;;;3.07;;
32365;SDS011;18837;46.832;16.838;2023-06-04T12:58:56;2.73;;;2.50;;
32365;SDS011;18837;46.832;16.838;2023-06-04T13:01:22;3.73;;;2.60;;
32365;SDS011;18837;46.832;16.838;2023-06-04T13:03:48;2.73;;;2.53;;
32365;SDS011;18837;46.832;16.838;2023-06-04T13:06:14;3.00;;;2.70;;
32365;SDS011;18837;46.832;16.838;2023-06-04T13:08:40;4.13;;;3.10;;
32365;SDS011;18837;46.832;16.838;2023-06-04T13:11:06;4.43;;;3.17;;
32365;SDS011;18837;46.832;16.838;2023-06-04T13:13:31;3.90;;;2.97;;
32365;SDS011;18837;46.832;16.838;2023-06-04T13:15:57;3.40;;;2.93;;
32365;SDS011;18837;46.832;16.838;2023-06-04T13:18:23;4.83;;;3.00;;
32365;SDS011;18837;46.832;16.838;2023-06-04T13:20:49;2.53;;;2.33;;
32365;SDS011;18837;46.832;16.838;2023-06-04T13:23:15;3.80;;;2.90;;
32365;SDS011;18837;46.832;16.838;2023-06-04T13:25:41;2.60;;;2.40;;
32365;SDS011;18837;46.832;16.838;2023-06-04T13:28:07;2.90;;;2.60;;
32365;SDS011;18837;46.832;16.838;2023-06-04T13:30:34;3.57;;;2.80;;
32365;SDS011;18837;46.832;16.838;2023-06-04T13:33:04;2.97;;;2.67;;
32365;SDS011;18837;46.832;16.838;2023-06-04T13:35:30;3.87;;;2.80;;
32365;SDS011;18837;46.832;16.838;2023-06-04T13:37:57;5.13;;;2.77;;
32365;SDS011;18837;46.832;16.838;2023-06-04T13:40:23;4.70;;;2.67;;
32365;SDS011;18837;46.832;16.838;2023-06-04T13:42:49;5.33;;;3.10;;
32365;SDS011;18837;46.832;16.838;2023-06-04T13:45:15;5.23;;;3.40;;
32365;SDS011;18837;46.832;16.838;2023-06-04T13:47:45;7.13;;;3.20;;
32365;SDS011;18837;46.832;16.838;2023-06-04T13:50:13;7.97;;;3.37;;
32365;SDS011;18837;46.832;16.838;2023-06-04T13:52:39;4.93;;;3.40;;
32365;SDS011;18837;46.832;16.838;2023-06-04T13:55:05;4.27;;;3.33;;
32365;SDS011;18837;46.832;16.838;2023-06-04T13:57:31;3.73;;;3.37;;
32365;SDS011;18837;46.832;16.838;2023-06-04T13:59:57;4.87;;;3.30;;
32365;SDS011;18837;46.832;16.838;2023-06-04T14:02:23;3.43;;;3.13;;
32365;SDS011;18837;46.832;16.838;2023-06-04T14:04:49;4.90;;;3.20;;
32365;SDS011;18837;46.832;16.838;2023-06-04T14:07:18;3.37;;;3.07;;
32365;SDS011;18837;46.832;16.838;2023-06-04T14:09:44;4.47;;;3.60;;
32365;SDS011;18837;46.832;16.838;2023-06-04T14:12:10;3.57;;;3.23;;
32365;SDS011;18837;46.832;16.838;2023-06-04T14:14:36;3.20;;;2.90;;
32365;SDS011;18837;46.832;16.838;2023-06-04T14:17:02;4.07;;;3.40;;
32365;SDS011;18837;46.832;16.838;2023-06-04T14:19:28;4.33;;;2.80;;
32365;SDS011;18837;46.832;16.838;2023-06-04T14:21:54;3.43;;;3.13;;
32365;SDS011;18837;46.832;16.838;2023-06-04T14:24:23;4.63;;;3.13;;
32365;SDS011;18837;46.832;16.838;2023-06-04T14:26:50;3.80;;;3.50;;
32365;SDS011;18837;46.832;16.838;2023-06-04T14:29:16;3.50;;;3.20;;
32365;SDS011;18837;46.832;16.838;2023-06-04T14:31:42;3.03;;;2.83;;
32365;SDS011;18837;46.832;16.838;2023-06-04T14:34:08;3.17;;;2.97;;
32365;SDS011;18837;46.832;16.838;2023-06-04T14:36:35;3.73;;;3.43;;
32365;SDS011;18837;46.832;16.838;2023-06-04T14:39:01;3.73;;;3.37;;
32365;SDS011;18837;46.832;16.838;2023-06-04T14:41:26;3.73;;;3.20;;
32365;SDS011;18837;46.832;16.838;2023-06-04T14:43:54;4.83;;;3.30;;